sensor_id;sensor_type;location;lat;lon;timestamp;pressure;altitude;pressure_sealevel;temperature;humidity
75008;BME280;63554;48.940;12.050;2023-06-19T00:01:15;97039.47;;;16.39;59.57
75008;BME280;63554;48.940;12.050;2023-06-19T00:05:19;97037.25;;;16.36;60.23
75008;BME280;63554;48.940;12.050;2023-06-19T00:09:24;97029.34;;;16.39;60.61
75008;BME280;63554;48.940;12.050;2023-06-19T00:13:27;97029.41;;;16.45;59.93
75008;BME280;63554;48.940;12.050;2023-06-19T00:17:30;97037.03;;;16.48;60.16
75008;BME280;63554;48.940;12.050;2023-06-19T00:21:34;97042.81;;;16.51;60.64
75008;BME280;63554;48.940;12.050;2023-06-19T00:25:36;97046.03;;;16.43;60.39
75008;BME280;63554;48.940;12.050;2023-06-19T00:29:39;97040.53;;;16.33;61.50
75008;BME280;63554;48.940;12.050;2023-06-19T00:33:42;97033.09;;;16.28;61.80
75008;BME280;63554;48.940;12.050;2023-06-19T00:37:46;97034.22;;;16.27;61.98
75008;BME280;63554;48.940;12.050;2023-06-19T00:41:51;97028.19;;;16.25;63.60
75008;BME280;63554;48.940;12.050;2023-06-19T00:45:55;97023.50;;;16.20;63.19
75008;BME280;63554;48.940;12.050;2023-06-19T00:49:58;97028.16;;;16.20;62.80
75008;BME280;63554;48.940;12.050;2023-06-19T00:54:03;97025.16;;;16.21;62.32
75008;BME280;63554;48.940;12.050;2023-06-19T00:58:06;97029.53;;;16.23;63.13
75008;BME280;63554;48.940;12.050;2023-06-19T01:02:09;97025.72;;;16.24;63.09
75008;BME280;63554;48.940;12.050;2023-06-19T01:06:14;97024.66;;;16.30;62.46
75008;BME280;63554;48.940;12.050;2023-06-19T01:10:21;97024.38;;;16.26;62.51
75008;BME280;63554;48.940;12.050;2023-06-19T01:14:33;97008.47;;;16.18;63.15
75008;BME280;63554;48.940;12.050;2023-06-19T01:18:38;97004.66;;;16.19;63.44
75008;BME280;63554;48.940;12.050;2023-06-19T01:22:43;97005.25;;;16.21;63.77
75008;BME280;63554;48.940;12.050;2023-06-19T01:26:46;97007.41;;;16.24;63.46
75008;BME280;63554;48.940;12.050;2023-06-19T01:30:49;97011.81;;;16.25;63.71
75008;BME280;63554;48.940;12.050;2023-06-19T01:34:52;97006.59;;;16.24;63.89
75008;BME280;63554;48.940;12.050;2023-06-19T01:38:58;97002.75;;;16.19;63.91
75008;BME280;63554;48.940;12.050;2023-06-19T01:43:02;97014.25;;;16.21;63.04
75008;BME280;63554;48.940;12.050;2023-06-19T01:47:10;97011.78;;;16.20;62.74
75008;BME280;63554;48.940;12.050;2023-06-19T01:51:12;97021.88;;;16.19;62.34
75008;BME280;63554;48.940;12.050;2023-06-19T01:55:17;97031.97;;;16.19;62.43
75008;BME280;63554;48.940;12.050;2023-06-19T01:59:20;97031.41;;;16.17;62.30
75008;BME280;63554;48.940;12.050;2023-06-19T02:03:22;97021.88;;;16.19;62.30
75008;BME280;63554;48.940;12.050;2023-06-19T02:07:25;97029.25;;;16.24;61.83
75008;BME280;63554;48.940;12.050;2023-06-19T02:11:29;97013.44;;;16.26;62.90
75008;BME280;63554;48.940;12.050;2023-06-19T02:15:32;97028.75;;;16.27;62.88
75008;BME280;63554;48.940;12.050;2023-06-19T02:19:35;97033.91;;;16.29;67.14
75008;BME280;63554;48.940;12.050;2023-06-19T02:23:37;97053.53;;;16.15;67.92
75008;BME280;63554;48.940;12.050;2023-06-19T02:27:41;97050.69;;;16.05;70.35
75008;BME280;63554;48.940;12.050;2023-06-19T02:31:44;97053.63;;;15.93;72.94
75008;BME280;63554;48.940;12.050;2023-06-19T02:35:48;97064.72;;;15.81;73.73
75008;BME280;63554;48.940;12.050;2023-06-19T02:39:51;97071.41;;;15.69;73.14
75008;BME280;63554;48.940;12.050;2023-06-19T02:43:55;97050.09;;;15.66;73.17
75008;BME280;63554;48.940;12.050;2023-06-19T02:47:58;97049.03;;;15.67;73.32
75008;BME280;63554;48.940;12.050;2023-06-19T02:52:00;97036.94;;;15.57;72.66
75008;BME280;63554;48.940;12.050;2023-06-19T02:56:03;97057.22;;;15.67;70.28
75008;BME280;63554;48.940;12.050;2023-06-19T03:00:09;97078.66;;;15.85;69.54
75008;BME280;63554;48.940;12.050;2023-06-19T03:04:13;97077.63;;;15.91;69.11
75008;BME280;63554;48.940;12.050;2023-06-19T03:08:16;97102.56;;;16.00;68.13
75008;BME280;63554;48.940;12.050;2023-06-19T03:12:18;97091.41;;;16.07;68.87
75008;BME280;63554;48.940;12.050;2023-06-19T03:16:22;97084.31;;;16.06;67.29
75008;BME280;63554;48.940;12.050;2023-06-19T03:20:25;97081.03;;;16.09;68.26
75008;BME280;63554;48.940;12.050;2023-06-19T03:24:28;97090.63;;;16.11;67.96
75008;BME280;63554;48.940;12.050;2023-06-19T03:28:31;97072.06;;;16.13;67.92
75008;BME280;63554;48.940;12.050;2023-06-19T03:32:35;97085.75;;;16.18;68.16
75008;BME280;63554;48.940;12.050;2023-06-19T03:36:37;97074.06;;;16.23;69.51
75008;BME280;63554;48.940;12.050;2023-06-19T03:40:40;97062.84;;;16.19;69.02
75008;BME280;63554;48.940;12.050;2023-06-19T03:44:43;97077.34;;;16.25;70.60
75008;BME280;63554;48.940;12.050;2023-06-19T03:48:47;97089.88;;;16.21;70.37
75008;BME280;63554;48.940;12.050;2023-06-19T03:52:49;97104.03;;;16.18;67.86
75008;BME280;63554;48.940;12.050;2023-06-19T03:56:52;97118.22;;;16.15;66.58
75008;BME280;63554;48.940;12.050;2023-06-19T04:00:55;97113.41;;;16.27;65.57
75008;BME280;63554;48.940;12.050;2023-06-19T04:04:59;97116.50;;;16.46;66.09
75008;BME280;63554;48.940;12.050;2023-06-19T04:09:03;97115.47;;;16.52;65.97
75008;BME280;63554;48.940;12.050;2023-06-19T04:13:06;97120.75;;;16.64;67.00
75008;BME280;63554;48.940;12.050;2023-06-19T04:17:09;97133.34;;;16.70;65.31
75008;BME280;63554;48.940;12.050;2023-06-19T04:21:13;97140.47;;;16.76;64.55
75008;BME280;63554;48.940;12.050;2023-06-19T04:25:16;97141.06;;;16.84;64.00
75008;BME280;63554;48.940;12.050;2023-06-19T04:29:19;97143.00;;;16.83;61.16
75008;BME280;63554;48.940;12.050;2023-06-19T04:33:22;97133.81;;;16.57;61.93
75008;BME280;63554;48.940;12.050;2023-06-19T04:37:28;97138.94;;;16.48;62.03
75008;BME280;63554;48.940;12.050;2023-06-19T04:41:30;97139.22;;;16.47;62.15
75008;BME280;63554;48.940;12.050;2023-06-19T04:45:34;97139.53;;;16.55;61.94
75008;BME280;63554;48.940;12.050;2023-06-19T04:49:36;97142.22;;;16.50;62.75
75008;BME280;63554;48.940;12.050;2023-06-19T04:53:40;97145.59;;;16.63;65.08
75008;BME280;63554;48.940;12.050;2023-06-19T04:57:43;97154.19;;;16.82;66.01
75008;BME280;63554;48.940;12.050;2023-06-19T05:01:45;97151.03;;;17.00;66.41
75008;BME280;63554;48.940;12.050;2023-06-19T05:05:48;97151.88;;;17.11;62.13
75008;BME280;63554;48.940;12.050;2023-06-19T05:09:52;97152.16;;;17.14;61.87
75008;BME280;63554;48.940;12.050;2023-06-19T05:13:55;97156.88;;;17.24;63.04
75008;BME280;63554;48.940;12.050;2023-06-19T05:17:58;97147.31;;;17.32;61.20
75008;BME280;63554;48.940;12.050;2023-06-19T05:22:00;97157.19;;;17.38;61.11
75008;BME280;63554;48.940;12.050;2023-06-19T05:26:05;97150.63;;;17.44;61.90
75008;BME280;63554;48.940;12.050;2023-06-19T05:30:08;97152.88;;;17.52;61.38
75008;BME280;63554;48.940;12.050;2023-06-19T05:34:11;97166.00;;;17.55;60.22
75008;BME280;63554;48.940;12.050;2023-06-19T05:38:14;97164.91;;;17.62;61.25
75008;BME280;63554;48.940;12.050;2023-06-19T05:42:18;97167.94;;;17.65;60.60
75008;BME280;63554;48.940;12.050;2023-06-19T05:46:21;97170.69;;;17.75;60.76
75008;BME280;63554;48.940;12.050;2023-06-19T05:50:23;97174.59;;;17.85;60.34
75008;BME280;63554;48.940;12.050;2023-06-19T05:54:27;97179.81;;;17.96;60.33
75008;BME280;63554;48.940;12.050;2023-06-19T05:58:31;97182.84;;;18.10;60.02
75008;BME280;63554;48.940;12.050;2023-06-19T06:02:33;97179.28;;;18.20;58.96
75008;BME280;63554;48.940;12.050;2023-06-19T06:06:36;97178.47;;;18.35;57.80
75008;BME280;63554;48.940;12.050;2023-06-19T06:10:39;97185.59;;;18.56;57.14
75008;BME280;63554;48.940;12.050;2023-06-19T06:14:43;97190.22;;;18.61;57.10
75008;BME280;63554;48.940;12.050;2023-06-19T06:18:46;97190.78;;;18.63;56.21
75008;BME280;63554;48.940;12.050;2023-06-19T06:22:49;97198.72;;;18.60;56.69
75008;BME280;63554;48.940;12.050;2023-06-19T06:26:52;97216.25;;;18.64;56.73
75008;BME280;63554;48.940;12.050;2023-06-19T06:30:56;97207.22;;;18.63;58.09
75008;BME280;63554;48.940;12.050;2023-06-19T06:34:59;97213.78;;;18.67;58.38
75008;BME280;63554;48.940;12.050;2023-06-19T06:39:02;97226.97;;;18.81;57.15
75008;BME280;63554;48.940;12.050;2023-06-19T06:43:05;97232.41;;;19.16;56.98
75008;BME280;63554;48.940;12.050;2023-06-19T06:47:09;97237.88;;;19.27;57.13
75008;BME280;63554;48.940;12.050;2023-06-19T06:51:13;97244.63;;;19.50;55.40
75008;BME280;63554;48.940;12.050;2023-06-19T06:55:16;97244.03;;;19.68;55.90
75008;BME280;63554;48.940;12.050;2023-06-19T06:59:19;97237.38;;;19.85;55.04
75008;BME280;63554;48.940;12.050;2023-06-19T07:03:23;97240.88;;;20.01;55.17
75008;BME280;63554;48.940;12.050;2023-06-19T07:07:26;97231.22;;;20.48;54.81
75008;BME280;63554;48.940;12.050;2023-06-19T07:11:29;97224.06;;;20.81;53.48
75008;BME280;63554;48.940;12.050;2023-06-19T07:15:32;97243.25;;;20.91;53.77
75008;BME280;63554;48.940;12.050;2023-06-19T07:19:36;97236.78;;;21.06;50.92
75008;BME280;63554;48.940;12.050;2023-06-19T07:23:39;97239.38;;;21.22;51.66
75008;BME280;63554;48.940;12.050;2023-06-19T07:27:43;97241.81;;;21.52;51.92
75008;BME280;63554;48.940;12.050;2023-06-19T07:31:46;97235.38;;;21.62;52.76
75008;BME280;63554;48.940;12.050;2023-06-19T07:35:50;97236.06;;;21.73;48.28
75008;BME280;63554;48.940;12.050;2023-06-19T07:39:53;97234.78;;;21.65;47.26
75008;BME280;63554;48.940;12.050;2023-06-19T07:43:56;97240.50;;;21.69;49.43
75008;BME280;63554;48.940;12.050;2023-06-19T07:47:58;97226.75;;;21.69;50.42
75008;BME280;63554;48.940;12.050;2023-06-19T07:52:03;97242.38;;;21.73;48.72
75008;BME280;63554;48.940;12.050;2023-06-19T07:56:06;97242.28;;;22.03;47.42
75008;BME280;63554;48.940;12.050;2023-06-19T08:00:10;97233.41;;;22.06;47.95
75008;BME280;63554;48.940;12.050;2023-06-19T08:04:14;97229.50;;;22.31;48.56
75008;BME280;63554;48.940;12.050;2023-06-19T08:08:19;97237.88;;;22.78;47.52
75008;BME280;63554;48.940;12.050;2023-06-19T08:12:21;97238.00;;;23.33;46.44
75008;BME280;63554;48.940;12.050;2023-06-19T08:16:24;97232.19;;;23.62;44.47
75008;BME280;63554;48.940;12.050;2023-06-19T08:20:27;97244.13;;;23.44;43.96
75008;BME280;63554;48.940;12.050;2023-06-19T08:24:31;97240.25;;;23.45;44.31
75008;BME280;63554;48.940;12.050;2023-06-19T08:28:34;97241.69;;;23.42;44.31
75008;BME280;63554;48.940;12.050;2023-06-19T08:32:37;97244.75;;;23.55;43.72
75008;BME280;63554;48.940;12.050;2023-06-19T08:36:40;97253.06;;;23.55;42.79
75008;BME280;63554;48.940;12.050;2023-06-19T08:40:44;97251.41;;;23.67;44.10
75008;BME280;63554;48.940;12.050;2023-06-19T08:44:47;97245.72;;;23.78;45.08
75008;BME280;63554;48.940;12.050;2023-06-19T08:48:50;97251.84;;;23.88;44.19
75008;BME280;63554;48.940;12.050;2023-06-19T08:52:54;97264.03;;;23.87;44.46
75008;BME280;63554;48.940;12.050;2023-06-19T08:57:01;97269.97;;;23.81;44.77
75008;BME280;63554;48.940;12.050;2023-06-19T09:01:04;97267.81;;;23.78;45.37
75008;BME280;63554;48.940;12.050;2023-06-19T09:05:12;97265.94;;;24.01;45.47
75008;BME280;63554;48.940;12.050;2023-06-19T09:09:15;97277.41;;;24.08;46.09
75008;BME280;63554;48.940;12.050;2023-06-19T09:13:19;97284.69;;;24.04;46.78
75008;BME280;63554;48.940;12.050;2023-06-19T09:17:22;97283.97;;;23.98;47.42
75008;BME280;63554;48.940;12.050;2023-06-19T09:21:25;97281.94;;;24.04;47.54
75008;BME280;63554;48.940;12.050;2023-06-19T09:25:30;97285.72;;;24.08;46.37
75008;BME280;63554;48.940;12.050;2023-06-19T09:29:36;97283.56;;;24.19;46.59
75008;BME280;63554;48.940;12.050;2023-06-19T09:33:40;97279.88;;;24.46;46.77
75008;BME280;63554;48.940;12.050;2023-06-19T09:37:45;97276.16;;;24.64;46.76
75008;BME280;63554;48.940;12.050;2023-06-19T09:41:47;97279.88;;;24.82;46.72
75008;BME280;63554;48.940;12.050;2023-06-19T09:45:55;97277.63;;;25.07;45.62
75008;BME280;63554;48.940;12.050;2023-06-19T09:50:00;97275.16;;;25.28;46.97
75008;BME280;63554;48.940;12.050;2023-06-19T09:54:05;97280.88;;;25.32;44.84
75008;BME280;63554;48.940;12.050;2023-06-19T09:58:08;97271.56;;;25.28;45.64
75008;BME280;63554;48.940;12.050;2023-06-19T10:02:14;97268.47;;;25.06;45.51
75008;BME280;63554;48.940;12.050;2023-06-19T10:06:17;97270.06;;;24.99;45.63
75008;BME280;63554;48.940;12.050;2023-06-19T10:10:26;97270.31;;;24.89;46.15
75008;BME280;63554;48.940;12.050;2023-06-19T10:14:46;97271.22;;;24.98;46.60
75008;BME280;63554;48.940;12.050;2023-06-19T10:18:50;97270.66;;;25.18;47.27
75008;BME280;63554;48.940;12.050;2023-06-19T10:22:58;97271.47;;;25.41;47.22
75008;BME280;63554;48.940;12.050;2023-06-19T10:27:02;97265.09;;;25.72;46.78
75008;BME280;63554;48.940;12.050;2023-06-19T10:31:06;97268.69;;;26.48;45.61
75008;BME280;63554;48.940;12.050;2023-06-19T10:35:12;97264.59;;;26.28;43.47
75008;BME280;63554;48.940;12.050;2023-06-19T10:39:15;97260.38;;;26.39;44.68
75008;BME280;63554;48.940;12.050;2023-06-19T10:43:21;97257.94;;;26.63;44.89
75008;BME280;63554;48.940;12.050;2023-06-19T10:47:26;97253.88;;;26.61;44.16
75008;BME280;63554;48.940;12.050;2023-06-19T10:51:34;97251.22;;;26.47;43.92
75008;BME280;63554;48.940;12.050;2023-06-19T10:55:37;97254.16;;;26.42;44.12
75008;BME280;63554;48.940;12.050;2023-06-19T10:59:39;97251.34;;;26.24;46.16
75008;BME280;63554;48.940;12.050;2023-06-19T11:03:42;97252.84;;;26.13;46.12
75008;BME280;63554;48.940;12.050;2023-06-19T11:07:52;97243.50;;;25.92;46.47
75008;BME280;63554;48.940;12.050;2023-06-19T11:11:55;97252.22;;;25.76;45.63
75008;BME280;63554;48.940;12.050;2023-06-19T11:15:58;97246.38;;;25.87;45.07
75008;BME280;63554;48.940;12.050;2023-06-19T11:20:00;97248.50;;;25.90;46.68
75008;BME280;63554;48.940;12.050;2023-06-19T11:24:11;97242.25;;;25.75;47.48
75008;BME280;63554;48.940;12.050;2023-06-19T11:28:15;97244.34;;;25.70;47.35
75008;BME280;63554;48.940;12.050;2023-06-19T11:32:21;97250.66;;;25.53;47.36
75008;BME280;63554;48.940;12.050;2023-06-19T11:36:26;97256.84;;;25.50;48.20
75008;BME280;63554;48.940;12.050;2023-06-19T11:40:40;97248.34;;;25.46;47.72
75008;BME280;63554;48.940;12.050;2023-06-19T11:44:53;97254.16;;;25.36;47.18
75008;BME280;63554;48.940;12.050;2023-06-19T11:49:07;97244.25;;;25.35;48.23
75008;BME280;63554;48.940;12.050;2023-06-19T11:53:10;97243.09;;;25.36;49.05
75008;BME280;63554;48.940;12.050;2023-06-19T11:57:14;97235.25;;;25.29;48.88
75008;BME280;63554;48.940;12.050;2023-06-19T12:01:17;97230.09;;;25.14;48.61
75008;BME280;63554;48.940;12.050;2023-06-19T12:05:20;97225.84;;;25.16;49.84
75008;BME280;63554;48.940;12.050;2023-06-19T12:09:23;97222.91;;;25.13;48.66
75008;BME280;63554;48.940;12.050;2023-06-19T12:13:27;97219.47;;;25.07;49.18
75008;BME280;63554;48.940;12.050;2023-06-19T12:17:29;97226.44;;;25.27;48.87
75008;BME280;63554;48.940;12.050;2023-06-19T12:21:32;97217.06;;;25.94;47.97
75008;BME280;63554;48.940;12.050;2023-06-19T12:25:41;97216.50;;;27.40;46.72
75008;BME280;63554;48.940;12.050;2023-06-19T12:29:46;97215.28;;;28.61;42.18
75008;BME280;63554;48.940;12.050;2023-06-19T12:33:48;97206.22;;;28.97;40.10
75008;BME280;63554;48.940;12.050;2023-06-19T12:37:51;97197.06;;;28.21;40.49
75008;BME280;63554;48.940;12.050;2023-06-19T12:41:56;97193.91;;;28.52;42.26
75008;BME280;63554;48.940;12.050;2023-06-19T12:46:00;97192.78;;;28.45;41.68
75008;BME280;63554;48.940;12.050;2023-06-19T12:50:04;97202.44;;;27.67;43.24
75008;BME280;63554;48.940;12.050;2023-06-19T12:54:07;97200.88;;;27.10;42.71
75008;BME280;63554;48.940;12.050;2023-06-19T12:58:10;97209.41;;;26.87;44.41
75008;BME280;63554;48.940;12.050;2023-06-19T13:02:14;97206.44;;;27.01;42.54
75008;BME280;63554;48.940;12.050;2023-06-19T13:06:17;97204.09;;;27.29;42.13
75008;BME280;63554;48.940;12.050;2023-06-19T13:10:21;97205.28;;;27.58;41.78
75008;BME280;63554;48.940;12.050;2023-06-19T13:14:24;97193.66;;;28.15;39.15
75008;BME280;63554;48.940;12.050;2023-06-19T13:18:28;97197.00;;;28.72;40.15
75008;BME280;63554;48.940;12.050;2023-06-19T13:22:31;97199.34;;;28.82;38.66
75008;BME280;63554;48.940;12.050;2023-06-19T13:26:33;97202.03;;;28.91;38.28
75008;BME280;63554;48.940;12.050;2023-06-19T13:30:36;97190.56;;;29.05;39.02
75008;BME280;63554;48.940;12.050;2023-06-19T13:34:40;97191.84;;;29.41;37.44
75008;BME280;63554;48.940;12.050;2023-06-19T13:38:43;97184.63;;;30.01;35.65
75008;BME280;63554;48.940;12.050;2023-06-19T13:42:45;97183.81;;;29.51;35.46
75008;BME280;63554;48.940;12.050;2023-06-19T13:46:48;97174.16;;;29.98;38.16
75008;BME280;63554;48.940;12.050;2023-06-19T13:50:53;97170.13;;;30.36;35.90
75008;BME280;63554;48.940;12.050;2023-06-19T13:54:55;97165.38;;;30.65;34.91
75008;BME280;63554;48.940;12.050;2023-06-19T13:58:58;97153.63;;;30.87;34.72
75008;BME280;63554;48.940;12.050;2023-06-19T14:03:01;97151.88;;;31.11;34.67
75008;BME280;63554;48.940;12.050;2023-06-19T14:07:06;97145.44;;;31.10;32.40
75008;BME280;63554;48.940;12.050;2023-06-19T14:11:10;97135.97;;;30.55;34.27
75008;BME280;63554;48.940;12.050;2023-06-19T14:15:13;97133.38;;;30.62;34.80
75008;BME280;63554;48.940;12.050;2023-06-19T14:19:15;97127.63;;;30.71;34.17
75008;BME280;63554;48.940;12.050;2023-06-19T14:23:20;97123.03;;;30.79;33.82
75008;BME280;63554;48.940;12.050;2023-06-19T14:27:23;97119.22;;;31.15;33.67
75008;BME280;63554;48.940;12.050;2023-06-19T14:31:26;97120.13;;;31.35;32.99
75008;BME280;63554;48.940;12.050;2023-06-19T14:35:28;97121.28;;;31.50;32.66
75008;BME280;63554;48.940;12.050;2023-06-19T14:39:33;97111.91;;;31.42;32.78
75008;BME280;63554;48.940;12.050;2023-06-19T14:43:35;97101.25;;;31.48;33.18
75008;BME280;63554;48.940;12.050;2023-06-19T14:47:38;97115.81;;;31.73;31.90
75008;BME280;63554;48.940;12.050;2023-06-19T14:51:42;97104.19;;;31.71;31.43
75008;BME280;63554;48.940;12.050;2023-06-19T14:55:46;97109.16;;;31.78;31.67
75008;BME280;63554;48.940;12.050;2023-06-19T14:59:49;97100.69;;;31.74;31.59
75008;BME280;63554;48.940;12.050;2023-06-19T15:03:52;97091.84;;;31.72;31.95
75008;BME280;63554;48.940;12.050;2023-06-19T15:07:55;97090.13;;;31.67;31.65
75008;BME280;63554;48.940;12.050;2023-06-19T15:11:59;97100.28;;;31.56;31.19
75008;BME280;63554;48.940;12.050;2023-06-19T15:16:02;97088.53;;;31.34;32.17
75008;BME280;63554;48.940;12.050;2023-06-19T15:20:07;97075.53;;;31.58;31.61
75008;BME280;63554;48.940;12.050;2023-06-19T15:24:10;97068.22;;;31.53;31.77
75008;BME280;63554;48.940;12.050;2023-06-19T15:28:14;97068.97;;;31.34;32.57
75008;BME280;63554;48.940;12.050;2023-06-19T15:32:17;97073.56;;;31.27;32.33
75008;BME280;63554;48.940;12.050;2023-06-19T15:36:20;97071.91;;;31.58;31.92
75008;BME280;63554;48.940;12.050;2023-06-19T15:40:22;97068.25;;;31.73;32.25
75008;BME280;63554;48.940;12.050;2023-06-19T15:44:27;97065.84;;;31.91;31.51
75008;BME280;63554;48.940;12.050;2023-06-19T15:48:29;97062.28;;;31.75;32.68
75008;BME280;63554;48.940;12.050;2023-06-19T15:52:32;97066.72;;;31.76;31.90
75008;BME280;63554;48.940;12.050;2023-06-19T15:56:35;97067.63;;;31.80;32.09
75008;BME280;63554;48.940;12.050;2023-06-19T16:00:40;97058.75;;;31.58;32.01
75008;BME280;63554;48.940;12.050;2023-06-19T16:04:42;97053.22;;;31.62;32.93
75008;BME280;63554;48.940;12.050;2023-06-19T16:08:46;97046.47;;;31.82;32.46
75008;BME280;63554;48.940;12.050;2023-06-19T16:12:49;97048.91;;;31.84;32.17
75008;BME280;63554;48.940;12.050;2023-06-19T16:16:53;97043.56;;;31.59;33.17
75008;BME280;63554;48.940;12.050;2023-06-19T16:20:56;97036.50;;;30.82;34.01
75008;BME280;63554;48.940;12.050;2023-06-19T16:24:59;97038.91;;;30.52;34.78
75008;BME280;63554;48.940;12.050;2023-06-19T16:29:02;97041.44;;;30.13;35.55
75008;BME280;63554;48.940;12.050;2023-06-19T16:33:06;97038.56;;;29.97;36.14
75008;BME280;63554;48.940;12.050;2023-06-19T16:37:10;97029.25;;;30.05;35.38
75008;BME280;63554;48.940;12.050;2023-06-19T16:41:13;97036.50;;;29.94;35.31
75008;BME280;63554;48.940;12.050;2023-06-19T16:45:21;97032.19;;;29.56;36.15
75008;BME280;63554;48.940;12.050;2023-06-19T16:49:29;97034.63;;;29.45;36.57
75008;BME280;63554;48.940;12.050;2023-06-19T16:53:31;97040.81;;;29.14;38.15
75008;BME280;63554;48.940;12.050;2023-06-19T16:57:34;97047.97;;;28.78;37.99
75008;BME280;63554;48.940;12.050;2023-06-19T17:01:37;97048.78;;;28.33;39.71
75008;BME280;63554;48.940;12.050;2023-06-19T17:05:41;97059.06;;;27.99;40.26
75008;BME280;63554;48.940;12.050;2023-06-19T17:09:44;97054.22;;;27.96;39.57
75008;BME280;63554;48.940;12.050;2023-06-19T17:13:48;97063.31;;;28.05;40.31
75008;BME280;63554;48.940;12.050;2023-06-19T17:17:51;97059.34;;;28.06;41.26
75008;BME280;63554;48.940;12.050;2023-06-19T17:21:55;97064.66;;;27.99;41.02
75008;BME280;63554;48.940;12.050;2023-06-19T17:25:58;97076.47;;;27.96;41.81
75008;BME280;63554;48.940;12.050;2023-06-19T17:30:01;97066.28;;;28.00;41.97
75008;BME280;63554;48.940;12.050;2023-06-19T17:34:04;97063.28;;;27.84;41.23
75008;BME280;63554;48.940;12.050;2023-06-19T17:38:08;97060.56;;;27.75;41.22
75008;BME280;63554;48.940;12.050;2023-06-19T17:42:11;97065.31;;;27.75;41.05
75008;BME280;63554;48.940;12.050;2023-06-19T17:46:13;97061.47;;;27.88;40.89
75008;BME280;63554;48.940;12.050;2023-06-19T17:50:16;97066.41;;;28.04;41.27
75008;BME280;63554;48.940;12.050;2023-06-19T17:54:20;97065.53;;;28.12;41.29
75008;BME280;63554;48.940;12.050;2023-06-19T17:58:23;97067.56;;;28.03;41.08
75008;BME280;63554;48.940;12.050;2023-06-19T18:02:29;97065.53;;;27.91;41.86
75008;BME280;63554;48.940;12.050;2023-06-19T18:06:32;97068.44;;;27.73;42.25
75008;BME280;63554;48.940;12.050;2023-06-19T18:10:36;97066.88;;;27.42;42.36
75008;BME280;63554;48.940;12.050;2023-06-19T18:14:39;97059.66;;;27.12;43.54
75008;BME280;63554;48.940;12.050;2023-06-19T18:18:42;97060.47;;;27.12;43.69
75008;BME280;63554;48.940;12.050;2023-06-19T18:22:44;97061.94;;;27.10;44.16
75008;BME280;63554;48.940;12.050;2023-06-19T18:26:48;97058.88;;;27.02;45.54
75008;BME280;63554;48.940;12.050;2023-06-19T18:30:51;97063.03;;;26.88;46.04
75008;BME280;63554;48.940;12.050;2023-06-19T18:34:54;97061.66;;;26.64;45.60
75008;BME280;63554;48.940;12.050;2023-06-19T18:38:57;97058.28;;;26.41;45.67
75008;BME280;63554;48.940;12.050;2023-06-19T18:43:01;97058.78;;;26.26;45.71
75008;BME280;63554;48.940;12.050;2023-06-19T18:47:04;97047.72;;;26.17;47.07
75008;BME280;63554;48.940;12.050;2023-06-19T18:51:07;97053.28;;;25.99;47.68
75008;BME280;63554;48.940;12.050;2023-06-19T18:55:09;97048.19;;;25.75;47.29
75008;BME280;63554;48.940;12.050;2023-06-19T18:59:13;97049.97;;;25.54;47.83
75008;BME280;63554;48.940;12.050;2023-06-19T19:03:16;97049.19;;;25.44;49.16
75008;BME280;63554;48.940;12.050;2023-06-19T19:07:19;97052.59;;;25.33;49.55
75008;BME280;63554;48.940;12.050;2023-06-19T19:11:24;97047.63;;;25.21;49.79
75008;BME280;63554;48.940;12.050;2023-06-19T19:15:28;97052.47;;;25.06;49.40
75008;BME280;63554;48.940;12.050;2023-06-19T19:19:30;97061.19;;;24.82;49.04
75008;BME280;63554;48.940;12.050;2023-06-19T19:23:33;97061.75;;;24.62;49.03
75008;BME280;63554;48.940;12.050;2023-06-19T19:27:36;97082.31;;;24.47;49.15
75008;BME280;63554;48.940;12.050;2023-06-19T19:31:41;97083.09;;;24.39;49.94
75008;BME280;63554;48.940;12.050;2023-06-19T19:35:44;97093.00;;;24.40;52.29
75008;BME280;63554;48.940;12.050;2023-06-19T19:39:47;97103.47;;;24.20;52.54
75008;BME280;63554;48.940;12.050;2023-06-19T19:43:49;97112.25;;;24.00;52.16
75008;BME280;63554;48.940;12.050;2023-06-19T19:47:54;97118.66;;;23.86;52.91
75008;BME280;63554;48.940;12.050;2023-06-19T19:51:57;97120.91;;;23.84;52.89
75008;BME280;63554;48.940;12.050;2023-06-19T19:56:00;97128.91;;;23.72;52.75
75008;BME280;63554;48.940;12.050;2023-06-19T20:00:03;97142.41;;;23.60;53.21
75008;BME280;63554;48.940;12.050;2023-06-19T20:04:08;97145.13;;;23.37;54.03
75008;BME280;63554;48.940;12.050;2023-06-19T20:08:11;97146.75;;;23.24;54.05
75008;BME280;63554;48.940;12.050;2023-06-19T20:12:14;97136.84;;;23.23;54.15
75008;BME280;63554;48.940;12.050;2023-06-19T20:16:22;97133.16;;;23.14;53.96
75008;BME280;63554;48.940;12.050;2023-06-19T20:20:27;97133.47;;;23.13;54.37
75008;BME280;63554;48.940;12.050;2023-06-19T20:24:30;97132.09;;;22.96;55.47
75008;BME280;63554;48.940;12.050;2023-06-19T20:28:32;97136.06;;;22.76;56.57
75008;BME280;63554;48.940;12.050;2023-06-19T20:32:35;97128.16;;;22.56;56.93
75008;BME280;63554;48.940;12.050;2023-06-19T20:36:39;97128.59;;;22.30;58.19
75008;BME280;63554;48.940;12.050;2023-06-19T20:40:42;97131.28;;;22.16;58.10
75008;BME280;63554;48.940;12.050;2023-06-19T20:44:44;97117.03;;;22.09;58.29
75008;BME280;63554;48.940;12.050;2023-06-19T20:48:49;97121.16;;;22.11;58.81
75008;BME280;63554;48.940;12.050;2023-06-19T20:52:53;97128.81;;;22.15;59.03
75008;BME280;63554;48.940;12.050;2023-06-19T20:56:56;97133.69;;;22.04;59.40
75008;BME280;63554;48.940;12.050;2023-06-19T21:00:58;97131.16;;;21.88;59.67
75008;BME280;63554;48.940;12.050;2023-06-19T21:05:01;97139.34;;;21.75;59.00
75008;BME280;63554;48.940;12.050;2023-06-19T21:09:05;97139.84;;;21.58;58.09
75008;BME280;63554;48.940;12.050;2023-06-19T21:13:10;97144.97;;;21.45;58.79